createdAt,value
2022-08-22T00:02:45.629Z,978.31
2022-08-22T00:03:22.738Z,978.31
2022-08-22T00:03:27.901Z,977.88
2022-08-22T00:04:28.045Z,977.85
2022-08-22T00:05:27.875Z,977.86
2022-08-22T00:06:27.785Z,977.88
2022-08-22T00:07:27.711Z,977.83
2022-08-22T00:08:27.721Z,977.82
2022-08-22T00:09:27.881Z,977.83
2022-08-22T00:10:27.731Z,977.86
2022-08-22T00:11:27.730Z,977.87
2022-08-22T00:12:27.710Z,977.86
2022-08-22T00:13:27.622Z,977.86
2022-08-22T00:14:27.720Z,977.84
2022-08-22T00:15:42.538Z,977.81
2022-08-22T00:16:27.710Z,977.82
2022-08-22T00:17:27.622Z,977.80
2022-08-22T00:18:27.542Z,977.87
2022-08-22T00:19:27.566Z,977.86
2022-08-22T00:20:28.434Z,977.85
2022-08-22T00:21:27.555Z,977.83
2022-08-22T00:22:27.785Z,977.85
2022-08-22T00:23:27.559Z,977.79
2022-08-22T00:24:27.482Z,977.81
2022-08-22T00:25:27.555Z,977.80
2022-08-22T00:26:27.709Z,977.82
2022-08-22T00:27:27.555Z,977.80
2022-08-22T00:28:27.467Z,977.78
2022-08-22T00:29:27.406Z,977.82
2022-08-22T00:30:27.418Z,977.80
2022-08-22T00:31:27.571Z,977.83
2022-08-22T00:32:27.401Z,977.86
2022-08-22T00:33:27.351Z,977.81
2022-08-22T00:34:27.471Z,977.92
2022-08-22T00:35:27.561Z,977.90
2022-08-22T00:36:27.383Z,977.78
2022-08-22T00:37:27.301Z,977.76
2022-08-22T00:38:27.401Z,977.78
2022-08-22T00:39:27.290Z,977.82
2022-08-22T00:40:27.391Z,977.78
2022-08-22T00:41:27.311Z,977.82
2022-08-22T00:42:29.398Z,977.85
2022-08-22T00:43:27.238Z,977.82
2022-08-22T00:44:27.205Z,977.82
2022-08-22T00:45:27.239Z,977.86
2022-08-22T00:46:27.176Z,977.86
2022-08-22T00:47:27.306Z,977.83
2022-08-22T00:48:27.145Z,977.83
2022-08-22T00:49:29.598Z,977.84
2022-08-22T00:50:27.126Z,977.78
2022-08-22T00:51:27.237Z,977.76
2022-08-22T00:52:27.398Z,977.80
2022-08-22T00:53:27.310Z,977.87
2022-08-22T00:54:27.091Z,977.80
2022-08-22T00:55:27.988Z,977.79
2022-08-22T00:56:27.092Z,977.84
2022-08-22T00:57:27.030Z,977.82
2022-08-22T00:58:27.151Z,977.80
2022-08-22T00:59:27.242Z,977.81
2022-08-22T01:00:27.080Z,977.82
2022-08-22T01:01:27.036Z,977.86
2022-08-22T01:02:27.082Z,977.81
2022-08-22T01:03:26.935Z,977.81
2022-08-22T01:04:27.000Z,977.85
2022-08-22T01:05:26.926Z,977.82
2022-08-22T01:06:26.915Z,977.79
2022-08-22T01:07:30.557Z,977.78
2022-08-22T01:08:27.076Z,977.86
2022-08-22T01:09:26.936Z,977.84
2022-08-22T01:10:27.155Z,977.86
2022-08-22T01:11:26.835Z,977.88
2022-08-22T01:12:26.825Z,977.87
2022-08-22T01:13:26.826Z,977.82
2022-08-22T01:14:34.247Z,977.88
2022-08-22T01:15:26.976Z,977.87
2022-08-22T01:16:26.776Z,977.86
2022-08-22T01:17:26.921Z,977.90
2022-08-22T01:18:26.773Z,977.91
2022-08-22T01:19:26.931Z,977.85
2022-08-22T01:20:26.759Z,977.85
2022-08-22T01:21:27.001Z,977.89
2022-08-22T01:22:26.703Z,977.91
2022-08-22T01:23:26.920Z,977.87
2022-08-22T01:24:26.760Z,977.91
2022-08-22T01:25:26.650Z,977.90
2022-08-22T01:26:26.835Z,977.96
2022-08-22T01:27:26.622Z,977.91
2022-08-22T01:28:26.610Z,977.94
2022-08-22T01:29:28.597Z,977.92
2022-08-22T01:30:26.755Z,977.93
2022-08-22T01:31:26.605Z,977.98
2022-08-22T01:32:26.626Z,977.98
2022-08-22T01:33:26.605Z,977.98
2022-08-22T01:34:26.535Z,977.98
2022-08-22T01:35:26.605Z,977.96
2022-08-22T01:36:26.504Z,977.95
2022-08-22T01:37:26.595Z,977.97
2022-08-22T01:38:26.536Z,977.99
2022-08-22T01:39:26.597Z,977.95
2022-08-22T01:40:27.240Z,977.91
2022-08-22T01:41:26.450Z,977.97
2022-08-22T01:42:26.451Z,977.97
2022-08-22T01:43:59.253Z,977.98
2022-08-22T01:44:26.441Z,977.95
2022-08-22T01:45:26.390Z,977.96
2022-08-22T01:46:26.440Z,977.95
2022-08-22T01:47:26.600Z,978.00
2022-08-22T01:48:26.350Z,977.96
2022-08-22T01:49:26.392Z,977.91
2022-08-22T01:50:26.430Z,977.91
2022-08-22T01:51:26.300Z,977.92
2022-08-22T01:52:26.437Z,977.92
2022-08-22T01:53:26.293Z,977.91
2022-08-22T01:54:26.457Z,977.91
2022-08-22T01:55:26.354Z,977.91
2022-08-22T01:56:26.436Z,977.96
2022-08-22T01:57:26.279Z,977.95
2022-08-22T01:58:26.436Z,977.93
2022-08-22T01:59:33.793Z,977.96
2022-08-22T02:00:35.353Z,977.97
2022-08-22T02:01:26.376Z,977.96
2022-08-22T02:02:26.515Z,977.99
2022-08-22T02:03:26.280Z,977.97
2022-08-22T02:04:26.141Z,977.94
2022-08-22T02:05:26.120Z,977.98
2022-08-22T02:06:26.121Z,977.93
2022-08-22T02:07:31.745Z,977.97
2022-08-22T02:08:26.190Z,978.00
2022-08-22T02:09:26.284Z,977.97
2022-08-22T02:10:26.211Z,977.99
2022-08-22T02:11:26.041Z,977.95
2022-08-22T02:12:26.122Z,977.97
2022-08-22T02:13:26.000Z,977.97
2022-08-22T02:14:26.121Z,977.97
2022-08-22T02:15:26.003Z,978.00
2022-08-22T02:16:26.185Z,977.96
2022-08-22T02:17:25.964Z,977.98
2022-08-22T02:18:26.127Z,977.97
2022-08-22T02:19:25.966Z,977.97
2022-08-22T02:20:25.936Z,977.98
2022-08-22T02:21:26.025Z,977.94
2022-08-22T02:22:25.896Z,977.99
2022-08-22T02:23:25.955Z,978.00
2022-08-22T02:24:26.117Z,977.99
2022-08-22T02:25:25.955Z,977.98
2022-08-22T02:26:25.855Z,977.95
2022-08-22T02:27:27.182Z,978.01
2022-08-22T02:28:25.830Z,977.92
2022-08-22T02:29:25.960Z,977.97
2022-08-22T02:30:25.800Z,978.00
2022-08-22T02:31:25.960Z,977.90
2022-08-22T02:32:25.799Z,977.96
2022-08-22T02:33:26.031Z,977.89
2022-08-22T02:34:25.804Z,977.97
2022-08-22T02:35:25.720Z,977.96
2022-08-22T02:36:25.800Z,977.93
2022-08-22T02:37:25.679Z,977.93
2022-08-22T02:38:25.793Z,977.99
2022-08-22T02:39:25.745Z,977.99
2022-08-22T02:40:25.814Z,977.97
2022-08-22T02:41:25.647Z,977.98
2022-08-22T02:42:25.635Z,977.99
2022-08-22T02:43:25.645Z,977.98
2022-08-22T02:44:25.609Z,978.02
2022-08-22T02:45:25.636Z,977.93
2022-08-22T02:46:25.644Z,977.97
2022-08-22T02:47:25.635Z,977.94
2022-08-22T02:48:26.319Z,977.99
2022-08-22T02:49:27.434Z,977.93
2022-08-22T02:50:25.525Z,977.98
2022-08-22T02:51:25.645Z,978.00
2022-08-22T02:52:25.530Z,977.97
2022-08-22T02:53:25.710Z,977.95
2022-08-22T02:54:25.489Z,978.00
2022-08-22T02:55:25.640Z,977.94
2022-08-22T02:56:25.492Z,977.92
2022-08-22T02:57:25.660Z,977.93
2022-08-22T02:58:25.572Z,977.93
2022-08-22T02:59:25.662Z,977.93
2022-08-22T03:00:31.467Z,977.86
2022-08-22T03:01:25.651Z,977.86
2022-08-22T03:02:25.480Z,977.93
2022-08-22T03:03:25.359Z,977.91
2022-08-22T03:04:25.504Z,977.86
2022-08-22T03:05:25.340Z,977.89
2022-08-22T03:06:25.305Z,977.86
2022-08-22T03:07:25.326Z,977.93
2022-08-22T03:08:25.486Z,977.92
2022-08-22T03:09:25.388Z,977.92
2022-08-22T03:10:25.475Z,977.87
2022-08-22T03:11:25.247Z,977.86
2022-08-22T03:12:25.224Z,977.89
2022-08-22T03:13:25.316Z,977.81
2022-08-22T03:14:25.211Z,977.82
2022-08-22T03:15:25.411Z,977.82
2022-08-22T03:16:25.482Z,977.83
2022-08-22T03:17:25.390Z,977.80
2022-08-22T03:18:25.160Z,977.81
2022-08-22T03:19:25.141Z,977.79
2022-08-22T03:20:25.231Z,977.76
2022-08-22T03:21:25.111Z,977.75
2022-08-22T03:22:25.159Z,977.78
2022-08-22T03:23:25.320Z,977.79
2022-08-22T03:24:25.160Z,977.72
2022-08-22T03:25:25.113Z,977.75
2022-08-22T03:26:25.165Z,977.73
2022-08-22T03:27:32.150Z,977.75
2022-08-22T03:28:25.155Z,977.71
2022-08-22T03:29:25.009Z,977.71
2022-08-22T03:30:25.155Z,977.69
2022-08-22T03:31:25.035Z,977.70
2022-08-22T03:32:25.155Z,977.71
2022-08-22T03:33:24.995Z,977.72
2022-08-22T03:34:25.158Z,977.69
2022-08-22T03:35:24.999Z,977.71
2022-08-22T03:36:24.956Z,977.75
2022-08-22T03:37:25.006Z,977.75
2022-08-22T03:38:25.150Z,977.74
2022-08-22T03:39:24.999Z,977.77
2022-08-22T03:40:31.522Z,977.78
2022-08-22T03:41:24.910Z,977.78
2022-08-22T03:42:24.842Z,977.78
2022-08-22T03:43:25.000Z,977.79
2022-08-22T03:44:24.842Z,977.82
2022-08-22T03:45:24.999Z,977.86
2022-08-22T03:46:24.840Z,977.79
2022-08-22T03:47:24.815Z,977.83
2022-08-22T03:48:24.830Z,977.85
2022-08-22T03:49:25.015Z,977.83
2022-08-22T03:50:24.836Z,977.86
2022-08-22T03:51:24.707Z,977.82
2022-08-22T03:52:24.837Z,977.85
2022-08-22T03:53:24.756Z,977.77
2022-08-22T03:54:24.835Z,977.79
2022-08-22T03:55:24.675Z,977.81
2022-08-22T03:56:24.835Z,977.78
2022-08-22T03:57:24.678Z,977.88
2022-08-22T03:58:27.877Z,977.78
2022-08-22T03:59:24.736Z,977.84
2022-08-22T04:00:24.863Z,977.74
2022-08-22T04:01:24.690Z,977.83
2022-08-22T04:02:43.101Z,977.89
2022-08-22T04:03:24.700Z,977.88
2022-08-22T04:04:24.540Z,977.82
2022-08-22T04:05:24.591Z,977.86
2022-08-22T04:06:24.523Z,977.83
2022-08-22T04:07:31.691Z,977.86
2022-08-22T04:08:26.425Z,977.85
2022-08-22T04:09:24.700Z,977.92
2022-08-22T04:10:24.511Z,977.86
2022-08-22T04:11:24.441Z,977.91
2022-08-22T04:12:24.531Z,977.83
2022-08-22T04:13:24.823Z,977.87
2022-08-22T04:14:24.538Z,977.86
2022-08-22T04:15:24.386Z,977.87
2022-08-22T04:16:24.535Z,977.87
2022-08-22T04:17:24.366Z,977.82
2022-08-22T04:18:24.365Z,977.86
2022-08-22T04:19:24.355Z,977.82
2022-08-22T04:20:24.326Z,977.89
2022-08-22T04:21:24.366Z,977.93
2022-08-22T04:22:24.596Z,977.90
2022-08-22T04:23:24.358Z,977.95
2022-08-22T04:24:24.266Z,977.97
2022-08-22T04:25:24.371Z,977.98
2022-08-22T04:26:24.531Z,978.02
2022-08-22T04:27:24.230Z,977.96
2022-08-22T04:28:24.291Z,978.01
2022-08-22T04:29:24.360Z,977.99
2022-08-22T04:30:24.202Z,977.99
2022-08-22T04:31:24.360Z,977.99
2022-08-22T04:32:24.220Z,978.00
2022-08-22T04:33:24.211Z,977.98
2022-08-22T04:34:24.190Z,978.00
2022-08-22T04:35:24.115Z,978.03
2022-08-22T04:36:24.115Z,978.03
2022-08-22T04:37:24.376Z,978.01
2022-08-22T04:38:24.276Z,978.06
2022-08-22T04:39:24.065Z,978.01
2022-08-22T04:40:24.275Z,978.07
2022-08-22T04:41:24.035Z,978.07
2022-08-22T04:42:33.137Z,978.06
2022-08-22T04:43:24.036Z,978.07
2022-08-22T04:44:24.095Z,978.04
2022-08-22T04:45:24.035Z,978.03
2022-08-22T04:46:24.215Z,978.04
2022-08-22T04:47:24.065Z,978.02
2022-08-22T04:48:23.962Z,978.04
2022-08-22T04:49:24.045Z,977.96
2022-08-22T04:50:23.981Z,977.97
2022-08-22T04:51:23.900Z,978.04
2022-08-22T04:52:23.890Z,978.01
2022-08-22T04:53:23.892Z,978.07
2022-08-22T04:54:23.880Z,978.07
2022-08-22T04:55:23.850Z,978.09
2022-08-22T04:56:23.950Z,978.07
2022-08-22T04:57:23.820Z,978.05
2022-08-22T04:58:23.811Z,978.03
2022-08-22T04:59:23.789Z,978.04
2022-08-22T05:00:23.875Z,978.07
2022-08-22T05:01:23.812Z,978.10
2022-08-22T05:02:23.956Z,978.12
2022-08-22T05:03:24.055Z,978.13
2022-08-22T05:04:23.886Z,978.09
2022-08-22T05:05:23.715Z,978.13
2022-08-22T05:06:23.884Z,978.12
2022-08-22T05:07:23.714Z,978.09
2022-08-22T05:08:23.735Z,978.15
2022-08-22T05:09:23.715Z,978.15
2022-08-22T05:10:23.877Z,978.19
2022-08-22T05:11:23.714Z,978.14
2022-08-22T05:12:23.632Z,978.20
2022-08-22T05:13:23.730Z,978.20
2022-08-22T05:14:23.949Z,978.19
2022-08-22T05:15:23.731Z,978.16
2022-08-22T05:16:23.657Z,978.16
2022-08-22T05:17:23.712Z,978.14
2022-08-22T05:18:23.560Z,978.13
2022-08-22T05:19:31.221Z,978.13
2022-08-22T05:20:23.554Z,978.19
2022-08-22T05:21:23.790Z,978.21
2022-08-22T05:22:23.550Z,978.18
2022-08-22T05:23:23.495Z,978.17
2022-08-22T05:24:23.554Z,978.16
2022-08-22T05:25:23.715Z,978.18
2022-08-22T05:26:23.555Z,978.18
2022-08-22T05:27:23.736Z,978.18
2022-08-22T05:28:23.555Z,978.15
2022-08-22T05:29:23.401Z,978.20
2022-08-22T05:30:23.385Z,978.16
2022-08-22T05:31:24.025Z,978.14
2022-08-22T05:32:23.547Z,978.15
2022-08-22T05:33:23.456Z,978.18
2022-08-22T05:34:23.326Z,978.14
2022-08-22T05:35:23.399Z,978.13
2022-08-22T05:36:23.301Z,978.19
2022-08-22T05:37:23.294Z,978.16
2022-08-22T05:38:23.280Z,978.18
2022-08-22T05:39:23.973Z,978.20
2022-08-22T05:40:23.502Z,978.22
2022-08-22T05:41:23.230Z,978.25
2022-08-22T05:42:23.271Z,978.22
2022-08-22T05:43:23.392Z,978.26
2022-08-22T05:44:23.245Z,978.24
2022-08-22T05:45:23.179Z,978.26
2022-08-22T05:46:26.778Z,978.25
2022-08-22T05:47:23.404Z,978.29
2022-08-22T05:48:23.245Z,978.29
2022-08-22T05:49:23.146Z,978.31
2022-08-22T05:50:23.256Z,978.31
2022-08-22T05:51:23.106Z,978.30
2022-08-22T05:52:23.175Z,978.32
2022-08-22T05:53:23.085Z,978.34
2022-08-22T05:54:33.481Z,978.35
2022-08-22T05:55:23.092Z,978.31
2022-08-22T05:56:23.036Z,978.31
2022-08-22T05:57:23.100Z,978.31
2022-08-22T05:58:23.331Z,978.35
2022-08-22T05:59:23.090Z,978.31
2022-08-22T06:00:23.000Z,978.34
2022-08-22T06:01:23.128Z,978.35
2022-08-22T06:02:23.230Z,978.33
2022-08-22T06:03:23.161Z,978.32
2022-08-22T06:04:22.930Z,978.33
2022-08-22T06:05:23.090Z,978.36
2022-08-22T06:06:22.912Z,978.31
2022-08-22T06:07:22.890Z,978.37
2022-08-22T06:08:22.910Z,978.39
2022-08-22T06:09:23.156Z,978.36
2022-08-22T06:10:22.928Z,978.39
2022-08-22T06:11:22.844Z,978.41
2022-08-22T06:12:22.915Z,978.39
2022-08-22T06:13:24.735Z,978.39
2022-08-22T06:14:24.905Z,978.44
2022-08-22T06:15:22.815Z,978.45
2022-08-22T06:16:22.925Z,978.40
2022-08-22T06:17:22.785Z,978.38
2022-08-22T06:18:22.925Z,978.44
2022-08-22T06:19:22.816Z,978.47
2022-08-22T06:20:22.916Z,978.49
2022-08-22T06:21:22.760Z,978.46
2022-08-22T06:22:22.710Z,978.47
2022-08-22T06:23:22.771Z,978.48
2022-08-22T06:24:22.980Z,978.44
2022-08-22T06:25:22.760Z,978.47
2022-08-22T06:26:22.644Z,978.47
2022-08-22T06:27:22.750Z,978.39
2022-08-22T06:28:22.610Z,978.39
2022-08-22T06:29:22.821Z,978.43
2022-08-22T06:30:22.590Z,978.36
2022-08-22T06:31:22.570Z,978.41
2022-08-22T06:32:30.643Z,978.39
2022-08-22T06:33:22.560Z,978.41
2022-08-22T06:34:22.685Z,978.42
2022-08-22T06:35:22.750Z,978.40
2022-08-22T06:36:22.606Z,978.41
2022-08-22T06:37:22.495Z,978.43
2022-08-22T06:38:22.595Z,978.41
2022-08-22T06:39:22.465Z,978.44
2022-08-22T06:40:22.587Z,978.44
2022-08-22T06:41:22.445Z,978.49
2022-08-22T06:42:22.596Z,978.45
2022-08-22T06:43:22.441Z,978.50
2022-08-22T06:44:22.400Z,978.54
2022-08-22T06:45:22.510Z,978.52
2022-08-22T06:46:22.601Z,978.49
2022-08-22T06:47:22.451Z,978.45
2022-08-22T06:48:22.353Z,978.46
2022-08-22T06:49:22.450Z,978.52
2022-08-22T06:50:22.380Z,978.50
2022-08-22T06:51:22.431Z,978.48
2022-08-22T06:52:22.281Z,978.45
2022-08-22T06:53:22.270Z,978.48
2022-08-22T06:54:22.275Z,978.52
2022-08-22T06:55:22.325Z,978.46
2022-08-22T06:56:22.275Z,978.50
2022-08-22T06:57:22.238Z,978.47
2022-08-22T06:58:22.225Z,978.51
2022-08-22T06:59:22.205Z,978.51
2022-08-22T07:00:22.276Z,978.53
2022-08-22T07:01:22.466Z,978.58
2022-08-22T07:02:22.285Z,978.52
2022-08-22T07:03:22.195Z,978.57
2022-08-22T07:04:22.278Z,978.52
2022-08-22T07:05:22.130Z,978.58
2022-08-22T07:06:22.181Z,978.54
2022-08-22T07:07:22.121Z,978.53
2022-08-22T07:08:22.280Z,978.50
2022-08-22T07:09:22.120Z,978.60
2022-08-22T07:10:22.280Z,978.55
2022-08-22T07:11:22.190Z,978.54
2022-08-22T07:12:22.040Z,978.60
2022-08-22T07:13:22.110Z,978.51
2022-08-22T07:14:21.999Z,978.56
2022-08-22T07:15:22.111Z,978.52
2022-08-22T07:16:22.086Z,978.54
2022-08-22T07:17:21.976Z,978.53
2022-08-22T07:18:21.965Z,978.52
2022-08-22T07:19:22.115Z,978.55
2022-08-22T07:20:21.965Z,978.55
2022-08-22T07:21:22.125Z,978.56
2022-08-22T07:22:22.026Z,978.53
2022-08-22T07:23:22.115Z,978.59
2022-08-22T07:24:21.963Z,978.49
2022-08-22T07:25:21.846Z,978.51
2022-08-22T07:26:21.956Z,978.56
2022-08-22T07:27:22.201Z,978.53
2022-08-22T07:28:21.970Z,978.50
2022-08-22T07:29:21.800Z,978.51
2022-08-22T07:30:27.673Z,978.47
2022-08-22T07:31:21.810Z,978.47
2022-08-22T07:32:22.030Z,978.53
2022-08-22T07:33:26.597Z,978.54
2022-08-22T07:34:21.740Z,978.50
2022-08-22T07:35:21.810Z,978.55
2022-08-22T07:36:23.117Z,978.52
2022-08-22T07:37:21.794Z,978.53
2022-08-22T07:38:22.035Z,978.52
2022-08-22T07:39:21.795Z,978.53
2022-08-22T07:40:21.776Z,978.55
2022-08-22T07:41:21.806Z,978.54
2022-08-22T07:42:21.660Z,978.53
2022-08-22T07:43:21.687Z,978.54
2022-08-22T07:44:21.635Z,978.51
2022-08-22T07:45:21.800Z,978.48
2022-08-22T07:46:21.635Z,978.49
2022-08-22T07:47:26.453Z,978.51
2022-08-22T07:48:25.785Z,978.53
2022-08-22T07:49:21.884Z,978.50
2022-08-22T07:50:21.651Z,978.49
2022-08-22T07:51:21.511Z,978.45
2022-08-22T07:52:21.640Z,978.47
2022-08-22T07:53:21.500Z,978.41
2022-08-22T07:54:21.530Z,978.44
2022-08-22T07:55:21.483Z,978.40
2022-08-22T07:56:21.430Z,978.43
2022-08-22T07:57:21.471Z,978.43
2022-08-22T07:58:21.423Z,978.44
2022-08-22T07:59:21.565Z,978.50
2022-08-22T08:00:21.636Z,978.48
2022-08-22T08:01:21.509Z,978.49
2022-08-22T08:02:21.376Z,978.45
2022-08-22T08:03:21.485Z,978.47
2022-08-22T08:04:21.406Z,978.48
2022-08-22T08:05:21.325Z,978.42
2022-08-22T08:06:21.326Z,978.44
2022-08-22T08:07:21.486Z,978.47
2022-08-22T08:08:21.325Z,978.47
2022-08-22T08:09:21.255Z,978.45
2022-08-22T08:10:21.400Z,978.44
2022-08-22T08:11:21.492Z,978.42
2022-08-22T08:12:21.321Z,978.44
2022-08-22T08:13:21.220Z,978.43
2022-08-22T08:14:21.320Z,978.37
2022-08-22T08:15:21.551Z,978.38
2022-08-22T08:16:21.321Z,978.43
2022-08-22T08:17:21.161Z,978.46
2022-08-22T08:18:21.150Z,978.40
2022-08-22T08:19:21.170Z,978.43
2022-08-22T08:20:21.191Z,978.43
2022-08-22T08:21:21.187Z,978.44
2022-08-22T08:22:21.335Z,978.46
2022-08-22T08:23:23.473Z,978.44
2022-08-22T08:24:21.076Z,978.43
2022-08-22T08:25:21.226Z,978.44
2022-08-22T08:26:21.340Z,978.42
2022-08-22T08:27:21.156Z,978.42
2022-08-22T08:28:21.018Z,978.40
2022-08-22T08:29:21.006Z,978.38
2022-08-22T08:30:21.086Z,978.38
2022-08-22T08:31:20.990Z,978.40
2022-08-22T08:32:21.010Z,978.39
2022-08-22T08:33:26.262Z,978.44
2022-08-22T08:34:21.001Z,978.43
2022-08-22T08:35:20.930Z,978.37
2022-08-22T08:36:21.093Z,978.40
2022-08-22T08:37:20.902Z,978.42
2022-08-22T08:38:20.881Z,978.43
2022-08-22T08:39:20.860Z,978.43
2022-08-22T08:40:21.094Z,978.38
2022-08-22T08:41:22.722Z,978.46
2022-08-22T08:42:21.006Z,978.33
2022-08-22T08:43:20.855Z,978.44
2022-08-22T08:44:20.828Z,978.33
2022-08-22T08:45:20.856Z,978.41
2022-08-22T08:46:20.996Z,978.41
2022-08-22T08:47:20.915Z,978.39
2022-08-22T08:48:21.005Z,978.41
2022-08-22T08:49:21.076Z,978.46
2022-08-22T08:50:20.727Z,978.38
2022-08-22T08:51:20.845Z,978.40
2022-08-22T08:52:20.775Z,978.42
2022-08-22T08:53:21.843Z,978.38
2022-08-22T08:54:20.680Z,978.40
2022-08-22T08:55:22.735Z,978.45
2022-08-22T08:56:20.693Z,978.44
2022-08-22T08:57:20.630Z,978.44
2022-08-22T08:58:20.749Z,978.43
2022-08-22T08:59:20.600Z,978.46
2022-08-22T09:00:20.690Z,978.45
2022-08-22T09:01:20.616Z,978.41
2022-08-22T09:02:23.679Z,978.41
2022-08-22T09:03:28.639Z,978.44
2022-08-22T09:04:20.555Z,978.44
2022-08-22T09:05:20.548Z,978.43
2022-08-22T09:06:20.525Z,978.46
2022-08-22T09:07:20.515Z,978.46
2022-08-22T09:08:20.565Z,978.44
2022-08-22T09:09:20.515Z,978.51
2022-08-22T09:10:20.456Z,978.51
2022-08-22T09:40:30.162Z,978.46
2022-08-22T09:40:35.170Z,978.55
2022-08-22T09:41:35.240Z,978.50
2022-08-22T09:42:35.205Z,978.48
2022-08-22T09:43:35.239Z,978.47
2022-08-22T09:44:39.618Z,978.50
2022-08-22T09:45:35.472Z,978.50
2022-08-22T09:46:36.978Z,978.46
2022-08-22T09:47:35.249Z,978.46
2022-08-22T09:48:35.145Z,978.52
2022-08-22T09:49:35.044Z,978.48
2022-08-22T09:50:35.076Z,978.46
2022-08-22T09:51:35.025Z,978.46
2022-08-22T09:52:36.939Z,978.45
2022-08-22T09:53:35.295Z,978.46
2022-08-22T09:54:35.084Z,978.44
2022-08-22T09:55:35.737Z,978.45
2022-08-22T09:56:35.080Z,978.45
2022-08-22T09:57:34.941Z,978.41
2022-08-22T09:58:38.919Z,978.44
2022-08-22T09:59:34.990Z,978.43
2022-08-22T10:00:34.916Z,978.38
2022-08-22T10:01:34.984Z,978.42
2022-08-22T10:02:35.929Z,978.45
2022-08-22T10:03:34.912Z,978.43
2022-08-22T10:04:34.933Z,978.40
2022-08-22T10:05:43.772Z,978.41
2022-08-22T10:06:34.819Z,978.42
2022-08-22T10:07:34.940Z,978.39
2022-08-22T10:08:35.087Z,978.37
2022-08-22T10:09:34.919Z,978.31
2022-08-22T10:10:34.845Z,978.38
2022-08-22T10:11:38.985Z,978.35
2022-08-22T10:12:36.422Z,978.38
2022-08-22T10:13:34.744Z,978.36
2022-08-22T10:14:34.756Z,978.37
2022-08-22T10:15:34.986Z,978.38
2022-08-22T10:16:34.754Z,978.36
2022-08-22T10:17:34.915Z,978.38
2022-08-22T10:18:34.780Z,978.42
2022-08-22T10:19:34.681Z,978.38
2022-08-22T10:20:34.770Z,978.38
2022-08-22T10:21:34.689Z,978.33
2022-08-22T10:22:34.620Z,978.37
2022-08-22T10:23:34.601Z,978.36
2022-08-22T10:24:36.071Z,978.34
2022-08-22T10:25:34.592Z,978.36
2022-08-22T10:26:38.581Z,978.37
2022-08-22T10:27:34.592Z,978.32
2022-08-22T10:28:34.760Z,978.31
2022-08-22T10:29:34.594Z,978.28
2022-08-22T10:30:34.764Z,978.32
2022-08-22T10:31:34.566Z,978.32
2022-08-22T10:32:34.494Z,978.32
2022-08-22T10:33:34.615Z,978.34
2022-08-22T10:34:34.755Z,978.32
2022-08-22T10:35:34.585Z,978.27
2022-08-22T10:36:34.435Z,978.31
2022-08-22T10:37:34.464Z,978.34
2022-08-22T10:38:43.965Z,978.37
2022-08-22T10:39:34.601Z,978.37
2022-08-22T10:40:34.439Z,978.30
2022-08-22T10:41:34.352Z,978.31
2022-08-22T10:42:35.539Z,978.30
2022-08-22T10:43:34.409Z,978.30
2022-08-22T10:44:34.429Z,978.29
2022-08-22T10:45:36.048Z,978.30
2022-08-22T10:46:34.429Z,978.31
2022-08-22T10:47:34.290Z,978.27
2022-08-22T10:48:34.514Z,978.25
2022-08-22T10:49:34.280Z,978.29
2022-08-22T10:50:34.445Z,978.33
2022-08-22T10:51:34.284Z,978.28
2022-08-22T10:52:34.216Z,978.27
2022-08-22T10:53:34.914Z,978.26
2022-08-22T10:54:34.229Z,978.30
2022-08-22T10:55:34.284Z,978.33
2022-08-22T10:56:34.158Z,978.31
2022-08-22T10:57:34.277Z,978.32
2022-08-22T10:58:34.217Z,978.31
2022-08-22T10:59:34.275Z,978.35
2022-08-22T11:00:34.179Z,978.33
2022-08-22T11:01:37.823Z,978.37
2022-08-22T11:02:34.132Z,978.41
2022-08-22T11:03:34.193Z,978.35
2022-08-22T11:04:34.130Z,978.36
2022-08-22T11:05:34.050Z,978.40
2022-08-22T11:06:34.123Z,978.44
2022-08-22T11:07:34.281Z,978.40
2022-08-22T11:08:34.903Z,978.44
2022-08-22T11:09:37.031Z,978.43
2022-08-22T11:10:34.912Z,978.42
2022-08-22T11:11:33.991Z,978.44
2022-08-22T11:12:35.271Z,978.49
2022-08-22T11:13:34.089Z,978.47
2022-08-22T11:14:34.027Z,978.42
2022-08-22T11:15:34.767Z,978.40
2022-08-22T11:16:36.781Z,978.42
2022-08-22T11:17:39.753Z,978.41
2022-08-22T11:18:34.125Z,978.46
2022-08-22T11:19:33.972Z,978.49
2022-08-22T11:20:33.905Z,978.51
2022-08-22T11:21:33.955Z,978.43
2022-08-22T11:22:33.822Z,978.47
2022-08-22T11:23:34.033Z,978.48
2022-08-22T11:24:35.391Z,978.49
2022-08-22T11:25:38.601Z,978.49
2022-08-22T11:26:41.373Z,978.48
2022-08-22T11:27:35.309Z,978.51
2022-08-22T11:28:33.801Z,978.50
2022-08-22T11:29:33.724Z,978.52
2022-08-22T11:30:36.418Z,978.54
2022-08-22T11:31:34.197Z,978.58
2022-08-22T11:32:33.780Z,978.56
2022-08-22T11:33:46.615Z,978.58
2022-08-22T11:34:33.802Z,978.58
2022-08-22T11:35:33.634Z,978.58
2022-08-22T11:36:33.726Z,978.59
2022-08-22T11:37:42.692Z,978.55
2022-08-22T11:38:33.644Z,978.60
2022-08-22T11:39:33.639Z,978.60
2022-08-22T11:40:34.385Z,978.62
2022-08-22T11:41:33.636Z,978.63
2022-08-22T11:42:33.605Z,978.64
2022-08-22T11:43:33.654Z,978.66
2022-08-22T11:44:34.495Z,978.60
2022-08-22T11:45:33.650Z,978.64
2022-08-22T11:46:33.502Z,978.66
2022-08-22T11:47:33.753Z,978.68
2022-08-22T11:48:33.482Z,978.70
2022-08-22T11:49:33.470Z,978.63
2022-08-22T11:50:33.481Z,978.64
2022-08-22T11:51:34.254Z,978.68
2022-08-22T11:52:33.481Z,978.65
2022-08-22T11:53:33.700Z,978.68
2022-08-22T11:54:33.482Z,978.68
2022-08-22T11:55:34.481Z,978.72
2022-08-22T11:56:33.475Z,978.69
2022-08-22T11:57:33.355Z,978.68
2022-08-22T11:58:33.404Z,978.69
2022-08-22T11:59:33.326Z,978.72
2022-08-22T12:00:33.476Z,978.72
2022-08-22T12:01:34.431Z,978.75
2022-08-22T12:02:33.526Z,978.78
2022-08-22T12:03:33.316Z,978.81
2022-08-22T12:04:33.567Z,978.79
2022-08-22T12:05:33.325Z,978.84
2022-08-22T12:06:34.706Z,978.80
2022-08-22T12:07:33.338Z,978.78
2022-08-22T12:08:33.213Z,978.77
2022-08-22T12:09:33.809Z,978.78
2022-08-22T12:10:33.481Z,978.80
2022-08-22T12:11:33.321Z,978.78
2022-08-22T12:12:33.171Z,978.76
2022-08-22T12:13:34.989Z,978.77
2022-08-22T12:14:33.151Z,978.80
2022-08-22T12:15:33.442Z,978.82
2022-08-22T12:16:33.160Z,978.82
2022-08-22T12:17:55.797Z,978.81
2022-08-22T12:18:33.156Z,978.80
2022-08-22T12:19:33.170Z,978.82
2022-08-22T12:20:33.155Z,978.86
2022-08-22T12:21:33.095Z,978.84
2022-08-22T12:22:33.006Z,978.82
2022-08-22T12:23:48.514Z,978.82
2022-08-22T12:24:32.986Z,978.83
2022-08-22T12:25:32.995Z,978.85
2022-08-22T12:26:33.016Z,978.90
2022-08-22T12:27:33.023Z,978.87
2022-08-22T12:28:33.161Z,978.86
2022-08-22T12:29:33.938Z,978.90
2022-08-22T12:30:33.161Z,978.90
2022-08-22T12:31:33.001Z,978.83
2022-08-22T12:32:32.940Z,978.88
2022-08-22T12:33:33.059Z,978.90
2022-08-22T12:34:32.830Z,978.89
2022-08-22T12:35:32.993Z,978.96
2022-08-22T12:36:32.831Z,978.99
2022-08-22T12:37:32.874Z,978.93
2022-08-22T12:38:37.429Z,978.94
2022-08-22T12:39:32.802Z,978.92
2022-08-22T12:40:32.928Z,978.97
2022-08-22T12:41:34.955Z,978.91
2022-08-22T12:42:32.835Z,978.96
2022-08-22T12:43:32.833Z,979.01
2022-08-22T12:44:32.835Z,979.00
2022-08-22T12:45:32.729Z,978.97
2022-08-22T12:46:32.687Z,978.95
2022-08-22T12:47:32.675Z,978.97
2022-08-22T12:48:32.895Z,979.00
2022-08-22T12:49:32.681Z,978.98
2022-08-22T12:50:32.633Z,979.04
2022-08-22T12:51:32.702Z,979.01
2022-08-22T12:52:33.143Z,979.05
2022-08-22T12:53:32.751Z,979.05
2022-08-22T12:54:32.866Z,979.01
2022-08-22T12:55:32.681Z,979.08
2022-08-22T12:56:32.541Z,979.03
2022-08-22T12:57:32.542Z,979.02